Terminal Aerodrome Forecast
Issued by NWS Sioux Falls, SD

Home | Current Version | Previous Version | Graphics & Text | Print | Product List | Glossary On
Versions: 1 2 3 4 5 6 7 8 9 10 11 12 13 14
384
FTUS43 KFSD 171138
TAFHON
TAF
KHON 171138Z 1712/1812 VRB03KT P6SM BKN150
     FM171400 32008KT P6SM BKN120
     FM171600 36009KT P6SM BKN100
     FM180500 33008KT P6SM BKN150=

USA.gov is the U.S. government's official web portal to all federal, state and local government web resources and services.